createdAt,value
2023-09-14T00:00:34.061Z,14.63
2023-09-14T00:01:38.561Z,14.62
2023-09-14T00:02:42.870Z,14.60
2023-09-14T00:03:47.435Z,14.56
2023-09-14T00:04:51.701Z,14.51
2023-09-14T00:05:56.111Z,14.46
2023-09-14T00:07:00.453Z,14.43
2023-09-14T00:08:04.952Z,14.41
2023-09-14T00:09:09.315Z,14.41
2023-09-14T00:10:13.729Z,14.40
2023-09-14T00:11:18.211Z,14.40
2023-09-14T00:12:22.536Z,14.39
2023-09-14T00:13:26.966Z,14.39
2023-09-14T00:14:31.317Z,14.39
2023-09-14T00:15:35.805Z,14.39
2023-09-14T00:16:40.231Z,14.40
2023-09-14T00:17:44.606Z,14.40
2023-09-14T00:18:49.213Z,14.40
2023-09-14T00:19:53.337Z,14.41
2023-09-14T00:21:11.878Z,14.41
2023-09-14T00:22:15.072Z,14.41
2023-09-14T00:23:19.426Z,14.41
2023-09-14T00:24:23.742Z,14.40
2023-09-14T00:25:28.098Z,14.39
2023-09-14T00:26:32.468Z,14.39
2023-09-14T00:27:36.959Z,14.38
2023-09-14T00:28:41.254Z,14.38
2023-09-14T00:29:45.643Z,14.38
2023-09-14T00:30:50.137Z,14.37
2023-09-14T00:31:54.521Z,14.36
2023-09-14T00:32:58.850Z,14.35
2023-09-14T00:34:03.252Z,14.35
2023-09-14T00:35:07.376Z,14.34
2023-09-14T00:36:11.948Z,14.33
2023-09-14T00:37:16.333Z,14.33
2023-09-14T00:38:20.754Z,14.32
2023-09-14T00:39:25.072Z,14.32
2023-09-14T00:40:29.609Z,14.32
2023-09-14T00:41:33.934Z,14.31
2023-09-14T00:42:38.132Z,14.31
2023-09-14T00:43:42.447Z,14.30
2023-09-14T00:44:46.975Z,14.30
2023-09-14T00:46:05.554Z,14.30
2023-09-14T00:47:08.819Z,14.29
2023-09-14T00:48:13.053Z,14.29
2023-09-14T00:49:17.281Z,14.29
2023-09-14T00:50:21.825Z,14.29
2023-09-14T00:51:25.994Z,14.29
2023-09-14T00:52:30.568Z,14.28
2023-09-14T00:53:34.945Z,14.28
2023-09-14T00:54:39.306Z,14.27
2023-09-14T00:55:43.435Z,14.26
2023-09-14T00:56:47.908Z,14.26
2023-09-14T00:57:52.453Z,14.25
2023-09-14T00:58:56.677Z,14.24
2023-09-14T01:00:01.104Z,14.24
2023-09-14T01:01:05.545Z,14.23
2023-09-14T01:02:09.956Z,14.22
2023-09-14T01:03:14.444Z,14.21
2023-09-14T01:04:18.692Z,14.20
2023-09-14T01:05:23.004Z,14.19
2023-09-14T01:06:27.367Z,14.18
2023-09-14T01:07:31.747Z,14.17
2023-09-14T01:08:36.220Z,14.17
2023-09-14T01:09:40.609Z,14.15
2023-09-14T01:10:44.800Z,14.11
2023-09-14T01:11:49.315Z,14.04
2023-09-14T01:12:53.757Z,13.99
2023-09-14T01:13:57.940Z,13.96
2023-09-14T01:15:02.327Z,13.95
2023-09-14T01:16:06.809Z,13.95
2023-09-14T01:17:11.020Z,13.95
2023-09-14T01:18:15.553Z,13.96
2023-09-14T01:19:19.885Z,13.97
2023-09-14T01:20:24.264Z,13.98
2023-09-14T01:21:28.546Z,13.99
2023-09-14T01:22:33.086Z,14.00
2023-09-14T01:23:37.538Z,14.00
2023-09-14T01:24:41.971Z,14.01
2023-09-14T01:25:46.348Z,14.00
2023-09-14T01:26:50.700Z,14.00
2023-09-14T01:27:54.995Z,13.99
2023-09-14T01:28:59.289Z,13.99
2023-09-14T01:30:03.735Z,13.99
2023-09-14T01:31:22.112Z,13.99
2023-09-14T01:32:25.331Z,14.00
2023-09-14T01:33:29.663Z,14.00
2023-09-14T01:34:34.130Z,14.00
2023-09-14T01:35:38.396Z,14.01
2023-09-14T01:36:42.928Z,14.01
2023-09-14T01:37:47.033Z,14.01
2023-09-14T01:38:51.508Z,14.01
2023-09-14T01:39:55.886Z,14.01
2023-09-14T01:41:00.240Z,14.01
2023-09-14T01:42:04.668Z,14.01
2023-09-14T01:43:09.025Z,14.01
2023-09-14T01:44:13.329Z,14.00
2023-09-14T01:45:17.667Z,13.99
2023-09-14T01:46:22.254Z,14.00
2023-09-14T01:47:26.369Z,13.99
2023-09-14T01:48:30.965Z,13.98
2023-09-14T01:49:35.222Z,13.98
2023-09-14T01:50:39.595Z,13.97
2023-09-14T01:51:44.101Z,13.98
2023-09-14T01:52:48.382Z,13.98
2023-09-14T01:53:52.565Z,13.98
2023-09-14T01:54:57.145Z,13.99
2023-09-14T01:56:01.438Z,13.98
2023-09-14T01:57:05.914Z,13.97
2023-09-14T01:58:10.283Z,13.95
2023-09-14T01:59:14.535Z,13.93
2023-09-14T02:00:24.951Z,13.93
2023-09-14T02:01:27.997Z,13.93
2023-09-14T02:02:32.336Z,13.91
2023-09-14T02:03:36.713Z,13.90
2023-09-14T02:04:41.105Z,13.90
2023-09-14T02:05:45.402Z,13.90
2023-09-14T02:06:49.896Z,13.87
2023-09-14T02:07:54.298Z,13.86
2023-09-14T02:08:58.662Z,13.86
2023-09-14T02:10:03.112Z,13.86
2023-09-14T02:11:07.355Z,13.86
2023-09-14T02:12:11.721Z,13.87
2023-09-14T02:13:16.114Z,13.88
2023-09-14T02:14:20.610Z,13.89
2023-09-14T02:15:24.912Z,13.90
2023-09-14T02:16:29.368Z,13.90
2023-09-14T02:17:33.690Z,13.91
2023-09-14T02:18:44.461Z,13.91
2023-09-14T02:19:46.956Z,13.92
2023-09-14T02:20:51.420Z,13.93
2023-09-14T02:21:55.798Z,13.91
2023-09-14T02:23:00.193Z,13.89
2023-09-14T02:24:04.544Z,13.88
2023-09-14T02:25:09.001Z,13.88
2023-09-14T02:26:13.319Z,13.88
2023-09-14T02:27:17.668Z,13.87
2023-09-14T02:28:22.017Z,13.87
2023-09-14T02:29:26.406Z,13.87
2023-09-14T02:30:30.756Z,13.88
2023-09-14T02:31:35.157Z,13.89
2023-09-14T02:32:39.616Z,13.91
2023-09-14T02:33:43.889Z,13.92
2023-09-14T02:34:48.224Z,13.93
2023-09-14T02:35:52.733Z,13.95
2023-09-14T02:36:57.016Z,13.96
2023-09-14T02:38:01.432Z,13.96
2023-09-14T02:39:05.866Z,13.97
2023-09-14T02:40:10.304Z,13.94
2023-09-14T02:41:14.695Z,13.91
2023-09-14T02:42:18.999Z,13.89
2023-09-14T02:43:23.494Z,13.88
2023-09-14T02:44:30.711Z,13.87
2023-09-14T02:45:34.251Z,13.88
2023-09-14T02:46:38.620Z,13.89
2023-09-14T02:47:42.943Z,13.90
2023-09-14T02:48:47.503Z,13.89
2023-09-14T02:49:51.593Z,13.87
2023-09-14T02:50:55.963Z,13.87
2023-09-14T02:52:00.489Z,13.87
2023-09-14T02:53:04.777Z,13.88
2023-09-14T02:54:09.114Z,13.88
2023-09-14T02:55:13.639Z,13.89
2023-09-14T02:56:17.802Z,13.89
2023-09-14T02:57:22.186Z,13.89
2023-09-14T02:58:26.460Z,13.89
2023-09-14T02:59:30.870Z,13.86
2023-09-14T03:00:35.322Z,13.81
2023-09-14T03:01:39.650Z,13.78
2023-09-14T03:02:44.050Z,13.76
2023-09-14T03:03:48.476Z,13.75
2023-09-14T03:04:52.761Z,13.75
2023-09-14T03:05:57.128Z,13.75
2023-09-14T03:07:01.606Z,13.77
2023-09-14T03:08:05.886Z,13.78
2023-09-14T03:09:10.312Z,13.79
2023-09-14T03:10:14.722Z,13.79
2023-09-14T03:11:19.043Z,13.78
2023-09-14T03:12:23.413Z,13.78
2023-09-14T03:13:27.802Z,13.77
2023-09-14T03:14:32.172Z,13.73
2023-09-14T03:15:39.636Z,13.70
2023-09-14T03:16:43.253Z,13.68
2023-09-14T03:17:47.489Z,13.68
2023-09-14T03:18:57.738Z,13.68
2023-09-14T03:20:00.787Z,13.68
2023-09-14T03:21:05.104Z,13.66
2023-09-14T03:22:09.517Z,13.65
2023-09-14T03:23:13.775Z,13.64
2023-09-14T03:24:18.218Z,13.65
2023-09-14T03:25:22.523Z,13.66
2023-09-14T03:26:26.949Z,13.67
2023-09-14T03:27:31.293Z,13.68
2023-09-14T03:28:35.641Z,13.67
2023-09-14T03:29:40.032Z,13.67
2023-09-14T03:30:44.439Z,13.66
2023-09-14T03:31:48.752Z,13.66
2023-09-14T03:32:59.122Z,13.65
2023-09-14T03:34:02.145Z,13.64
2023-09-14T03:35:06.447Z,13.64
2023-09-14T03:36:10.801Z,13.63
2023-09-14T03:37:29.227Z,13.62
2023-09-14T03:38:32.665Z,13.62
2023-09-14T03:39:36.979Z,13.61
2023-09-14T03:40:41.237Z,13.60
2023-09-14T03:41:45.734Z,13.60
2023-09-14T03:42:50.014Z,13.60
2023-09-14T03:43:54.380Z,13.59
2023-09-14T03:44:58.812Z,13.59
2023-09-14T03:46:03.435Z,13.59
2023-09-14T03:47:07.550Z,13.58
2023-09-14T03:48:11.908Z,13.57
2023-09-14T03:49:16.413Z,13.56
2023-09-14T03:50:20.745Z,13.55
2023-09-14T03:51:25.112Z,13.54
2023-09-14T03:52:29.495Z,13.53
2023-09-14T03:53:33.964Z,13.51
2023-09-14T03:54:38.290Z,13.47
2023-09-14T03:55:42.682Z,13.43
2023-09-14T03:56:47.141Z,13.38
2023-09-14T03:57:51.497Z,13.34
2023-09-14T03:58:55.786Z,13.32
2023-09-14T04:00:00.132Z,13.31
2023-09-14T04:01:04.545Z,13.29
2023-09-14T04:02:08.816Z,13.27
2023-09-14T04:03:13.312Z,13.24
2023-09-14T04:04:17.720Z,13.22
2023-09-14T04:05:21.914Z,13.21
2023-09-14T04:06:26.263Z,13.21
2023-09-14T04:07:30.622Z,13.20
2023-09-14T04:08:34.975Z,13.20
2023-09-14T04:09:39.325Z,13.19
2023-09-14T04:10:43.684Z,13.19
2023-09-14T04:11:48.071Z,13.18
2023-09-14T04:12:52.521Z,13.17
2023-09-14T04:13:56.798Z,13.16
2023-09-14T04:15:01.152Z,13.15
2023-09-14T04:16:05.625Z,13.11
2023-09-14T04:17:09.837Z,13.07
2023-09-14T04:18:14.212Z,13.03
2023-09-14T04:19:18.636Z,13.01
2023-09-14T04:20:22.906Z,12.99
2023-09-14T04:21:27.264Z,12.99
2023-09-14T04:22:31.641Z,12.99
2023-09-14T04:23:36.092Z,13.00
2023-09-14T04:24:54.430Z,13.00
2023-09-14T04:25:57.590Z,13.01
2023-09-14T04:27:01.985Z,13.02
2023-09-14T04:28:06.365Z,13.03
2023-09-14T04:29:10.529Z,13.04
2023-09-14T04:30:14.996Z,13.05
2023-09-14T04:31:19.422Z,13.06
2023-09-14T04:32:23.679Z,13.06
2023-09-14T04:33:27.960Z,13.07
2023-09-14T04:34:32.472Z,13.07
2023-09-14T04:35:36.764Z,13.07
2023-09-14T04:36:41.236Z,13.07
2023-09-14T04:37:45.464Z,13.07
2023-09-14T04:38:49.838Z,13.06
2023-09-14T04:39:54.243Z,13.05
2023-09-14T04:40:58.538Z,13.05
2023-09-14T04:42:02.904Z,13.05
2023-09-14T04:43:07.298Z,13.05
2023-09-14T04:44:11.628Z,13.04
2023-09-14T04:45:15.976Z,13.02
2023-09-14T04:46:20.306Z,13.01
2023-09-14T04:47:24.607Z,13.00
2023-09-14T04:48:29.008Z,12.99
2023-09-14T04:49:36.287Z,12.98
2023-09-14T04:50:39.802Z,12.97
2023-09-14T04:51:44.187Z,12.97
2023-09-14T04:52:48.508Z,12.97
2023-09-14T04:53:52.852Z,12.94
2023-09-14T04:54:57.145Z,12.89
2023-09-14T04:56:01.523Z,12.82
2023-09-14T04:57:05.909Z,12.75
2023-09-14T04:58:10.260Z,12.70
2023-09-14T04:59:14.566Z,12.67
2023-09-14T05:00:18.935Z,12.65
2023-09-14T05:01:23.367Z,12.65
2023-09-14T05:02:27.525Z,12.66
2023-09-14T05:03:31.972Z,12.68
2023-09-14T05:04:36.380Z,12.69
2023-09-14T05:05:40.636Z,12.71
2023-09-14T05:06:59.117Z,12.73
2023-09-14T05:08:02.213Z,12.75
2023-09-14T05:09:06.558Z,12.76
2023-09-14T05:10:10.978Z,12.77
2023-09-14T05:11:15.210Z,12.78
2023-09-14T05:12:19.719Z,12.77
2023-09-14T05:13:24.176Z,12.76
2023-09-14T05:14:28.397Z,12.73
2023-09-14T05:15:32.786Z,12.71
2023-09-14T05:16:37.146Z,12.70
2023-09-14T05:17:41.474Z,12.69
2023-09-14T05:18:46.170Z,12.67
2023-09-14T05:19:50.247Z,12.66
2023-09-14T05:20:54.605Z,12.65
2023-09-14T05:21:58.974Z,12.66
2023-09-14T05:23:03.380Z,12.66
2023-09-14T05:24:07.676Z,12.67
2023-09-14T05:25:12.069Z,12.68
2023-09-14T05:26:16.501Z,12.69
2023-09-14T05:27:34.948Z,12.69
2023-09-14T05:28:38.235Z,12.71
2023-09-14T05:29:42.502Z,12.71
2023-09-14T05:30:47.025Z,12.72
2023-09-14T05:31:51.249Z,12.72
2023-09-14T05:32:55.610Z,12.72
2023-09-14T05:33:59.975Z,12.71
2023-09-14T05:35:04.321Z,12.72
2023-09-14T05:36:08.747Z,12.72
2023-09-14T05:37:13.158Z,12.71
2023-09-14T05:38:17.502Z,12.72
2023-09-14T05:39:21.801Z,12.72
2023-09-14T05:40:26.157Z,12.72
2023-09-14T05:41:30.514Z,12.73
2023-09-14T05:42:34.897Z,12.73
2023-09-14T05:43:39.350Z,12.74
2023-09-14T05:44:43.675Z,12.75
2023-09-14T05:45:48.033Z,12.76
2023-09-14T05:46:52.344Z,12.79
2023-09-14T05:47:56.876Z,12.82
2023-09-14T05:49:01.159Z,12.85
2023-09-14T05:50:05.520Z,12.88
2023-09-14T05:51:09.918Z,12.91
2023-09-14T05:52:14.302Z,12.93
2023-09-14T05:53:18.613Z,12.95
2023-09-14T05:54:22.966Z,12.98
2023-09-14T05:55:27.349Z,13.00
2023-09-14T05:56:31.700Z,13.01
2023-09-14T05:57:36.069Z,13.01
2023-09-14T05:58:40.425Z,13.02
2023-09-14T05:59:44.754Z,13.03
2023-09-14T06:00:49.199Z,13.06
2023-09-14T06:01:53.479Z,13.08
2023-09-14T06:02:57.838Z,13.10
2023-09-14T06:04:02.231Z,13.11
2023-09-14T06:05:21.075Z,13.13
2023-09-14T06:06:10.867Z,13.16
2023-09-14T06:07:15.351Z,13.19
2023-09-14T06:08:19.626Z,13.21
2023-09-14T06:09:23.970Z,13.25
2023-09-14T06:10:28.343Z,13.28
2023-09-14T06:11:32.685Z,13.31
2023-09-14T06:12:37.040Z,13.35
2023-09-14T06:13:41.446Z,13.39
2023-09-14T06:14:45.812Z,13.43
2023-09-14T06:15:50.271Z,13.48
2023-09-14T06:16:54.521Z,13.52
2023-09-14T06:17:58.909Z,13.56
2023-09-14T06:19:03.396Z,13.60
2023-09-14T06:20:07.684Z,13.65
2023-09-14T06:21:12.053Z,13.71
2023-09-14T06:22:16.462Z,13.80
2023-09-14T06:23:20.737Z,13.90
2023-09-14T06:24:25.081Z,13.99
2023-09-14T06:25:29.434Z,14.09
2023-09-14T06:26:33.834Z,14.19
2023-09-14T06:27:41.168Z,14.27
2023-09-14T06:28:44.893Z,14.35
2023-09-14T06:29:49.008Z,14.42
2023-09-14T06:30:53.492Z,14.48
2023-09-14T06:31:57.719Z,14.54
2023-09-14T06:33:02.310Z,14.61
2023-09-14T06:34:06.654Z,14.68
2023-09-14T06:35:10.900Z,14.75
2023-09-14T06:36:15.299Z,14.82
2023-09-14T06:37:19.885Z,14.90
2023-09-14T06:38:24.080Z,14.98
2023-09-14T06:39:28.457Z,15.09
2023-09-14T06:40:32.887Z,15.20
2023-09-14T06:41:37.291Z,15.31
2023-09-14T06:42:41.762Z,15.41
2023-09-14T06:43:46.693Z,15.48
2023-09-14T06:44:50.442Z,15.52
2023-09-14T06:45:54.894Z,15.54
2023-09-14T06:46:59.325Z,15.54
2023-09-14T06:48:03.665Z,15.53
2023-09-14T06:49:08.135Z,15.52
2023-09-14T06:50:12.428Z,15.50
2023-09-14T06:51:16.755Z,15.49
2023-09-14T06:52:21.131Z,15.48
2023-09-14T06:53:25.504Z,15.46
2023-09-14T06:54:43.965Z,15.45
2023-09-14T06:55:47.230Z,15.43
2023-09-14T06:56:51.571Z,15.42
2023-09-14T06:57:56.027Z,15.40
2023-09-14T06:59:00.365Z,15.39
2023-09-14T07:00:04.710Z,15.38
2023-09-14T07:01:09.116Z,15.37
2023-09-14T07:02:13.459Z,15.35
2023-09-14T07:03:17.944Z,15.35
2023-09-14T07:04:22.405Z,15.35
2023-09-14T07:05:26.645Z,15.36
2023-09-14T07:06:31.043Z,15.37
2023-09-14T07:07:35.407Z,15.39
2023-09-14T07:08:39.819Z,15.41
2023-09-14T07:09:44.244Z,15.43
2023-09-14T07:10:48.570Z,15.46
2023-09-14T07:11:52.947Z,15.49
2023-09-14T07:12:57.359Z,15.51
2023-09-14T07:14:01.751Z,15.53
2023-09-14T07:15:06.164Z,15.55
2023-09-14T07:16:10.628Z,15.56
2023-09-14T07:17:15.098Z,15.58
2023-09-14T07:18:19.372Z,15.59
2023-09-14T07:19:37.783Z,15.60
2023-09-14T07:20:40.996Z,15.60
2023-09-14T07:21:45.294Z,15.59
2023-09-14T07:22:49.757Z,15.57
2023-09-14T07:24:08.190Z,15.56
2023-09-14T07:25:11.355Z,15.55
2023-09-14T07:26:15.662Z,15.55
2023-09-14T07:27:20.084Z,15.54
2023-09-14T07:28:24.473Z,15.55
2023-09-14T07:29:28.827Z,15.56
2023-09-14T07:30:33.212Z,15.57
2023-09-14T07:31:37.813Z,15.58
2023-09-14T07:32:42.077Z,15.60
2023-09-14T07:33:46.873Z,15.62
2023-09-14T07:34:50.825Z,15.64
2023-09-14T07:35:55.367Z,15.67
2023-09-14T07:36:59.666Z,15.69
2023-09-14T07:38:04.065Z,15.71
2023-09-14T07:39:08.421Z,15.71
2023-09-14T07:40:12.880Z,15.72
2023-09-14T07:41:17.188Z,15.73
2023-09-14T07:43:49.209Z,15.78
2023-09-14T07:44:53.296Z,15.80
2023-09-14T07:45:57.750Z,15.82
2023-09-14T07:47:02.202Z,15.83
2023-09-14T07:48:06.474Z,15.85
2023-09-14T07:49:10.893Z,15.86
2023-09-14T07:50:15.240Z,15.88
2023-09-14T07:51:19.814Z,15.89
2023-09-14T07:52:24.076Z,15.90
2023-09-14T07:53:28.547Z,15.91
2023-09-14T07:54:32.921Z,15.92
2023-09-14T07:55:37.370Z,15.93
2023-09-14T07:56:41.709Z,15.95
2023-09-14T07:57:46.272Z,15.97
2023-09-14T07:58:50.547Z,15.99
2023-09-14T07:59:54.960Z,16.00
2023-09-14T08:00:59.401Z,16.02
2023-09-14T08:02:03.765Z,16.03
2023-09-14T08:03:08.281Z,16.05
2023-09-14T08:04:12.909Z,16.07
2023-09-14T08:05:16.977Z,16.09
2023-09-14T08:06:23.572Z,16.12
2023-09-14T08:07:25.687Z,16.15
2023-09-14T08:08:30.085Z,16.18
2023-09-14T08:09:34.471Z,16.21
2023-09-14T08:10:38.873Z,16.23
2023-09-14T08:11:43.268Z,16.26
2023-09-14T08:12:47.663Z,16.29
2023-09-14T08:13:52.051Z,16.32
2023-09-14T08:14:56.426Z,16.35
2023-09-14T08:16:00.899Z,16.37
2023-09-14T08:17:05.187Z,16.39
2023-09-14T08:18:09.673Z,16.42
2023-09-14T08:19:14.035Z,16.44
2023-09-14T08:20:18.386Z,16.45
2023-09-14T08:21:22.806Z,16.47
2023-09-14T08:23:54.622Z,16.50
2023-09-14T08:24:58.964Z,16.51
2023-09-14T08:26:03.352Z,16.54
2023-09-14T08:27:07.760Z,16.58
2023-09-14T08:28:12.190Z,16.62
2023-09-14T08:29:16.490Z,16.67
2023-09-14T08:30:20.870Z,16.73
2023-09-14T08:31:25.395Z,16.80
2023-09-14T08:32:29.817Z,16.86
2023-09-14T08:33:34.108Z,16.92
2023-09-14T08:34:44.497Z,16.97
2023-09-14T08:35:47.649Z,17.01
2023-09-14T08:37:06.095Z,17.06
2023-09-14T08:38:09.451Z,17.10
2023-09-14T08:39:16.873Z,17.13
2023-09-14T08:40:18.236Z,17.15
2023-09-14T08:41:22.570Z,17.17
2023-09-14T08:42:26.964Z,17.17
2023-09-14T08:43:31.363Z,17.19
2023-09-14T08:44:38.686Z,17.20
2023-09-14T08:45:42.179Z,17.23
2023-09-14T08:46:46.576Z,17.27
2023-09-14T08:47:50.908Z,17.29
2023-09-14T08:48:55.259Z,17.32
2023-09-14T08:49:59.793Z,17.35
2023-09-14T08:51:04.114Z,17.34
2023-09-14T08:52:08.644Z,17.34
2023-09-14T08:53:12.940Z,17.32
2023-09-14T08:54:17.979Z,17.31
2023-09-14T08:55:35.813Z,17.29
2023-09-14T08:56:38.946Z,17.29
2023-09-14T08:57:43.359Z,17.30
2023-09-14T08:58:47.620Z,17.30
2023-09-14T08:59:52.089Z,17.31
2023-09-14T09:00:56.610Z,17.31
2023-09-14T09:02:01.010Z,17.29
2023-09-14T09:03:05.359Z,17.30
2023-09-14T09:04:09.744Z,17.31
2023-09-14T09:05:14.220Z,17.33
2023-09-14T09:06:18.511Z,17.36
2023-09-14T09:07:22.858Z,17.40
2023-09-14T09:08:27.238Z,17.44
2023-09-14T09:09:31.569Z,17.45
2023-09-14T09:10:36.002Z,17.47
2023-09-14T09:11:40.300Z,17.52
2023-09-14T09:12:50.817Z,17.56
2023-09-14T09:13:53.882Z,17.61
2023-09-14T09:14:58.296Z,17.65
2023-09-14T09:16:02.667Z,17.69
2023-09-14T09:17:07.029Z,17.72
2023-09-14T09:18:11.442Z,17.71
2023-09-14T09:19:15.880Z,17.69
2023-09-14T09:20:20.327Z,17.69
2023-09-14T09:21:24.533Z,17.67
2023-09-14T09:22:43.101Z,17.67
2023-09-14T09:23:46.459Z,17.69
2023-09-14T09:24:50.811Z,17.65
2023-09-14T09:25:55.209Z,17.68
2023-09-14T09:26:59.617Z,17.63
2023-09-14T09:28:04.029Z,17.51
2023-09-14T09:29:08.372Z,17.43
2023-09-14T09:30:12.717Z,17.34
2023-09-14T09:31:17.199Z,17.18
2023-09-14T09:32:21.475Z,17.13
2023-09-14T09:33:26.057Z,16.98
2023-09-14T09:34:30.442Z,16.80
2023-09-14T09:35:41.128Z,16.81
2023-09-14T09:36:43.980Z,16.90
2023-09-14T09:37:48.246Z,17.09
2023-09-14T09:38:58.643Z,17.31
2023-09-14T09:40:15.953Z,17.51
2023-09-14T09:41:19.031Z,17.58
2023-09-14T09:42:26.393Z,17.39
2023-09-14T09:43:29.901Z,17.42
2023-09-14T09:44:34.292Z,17.54
2023-09-14T09:45:38.784Z,17.66
2023-09-14T09:46:43.371Z,17.75
2023-09-14T09:47:47.599Z,17.67
2023-09-14T09:48:52.036Z,17.56
2023-09-14T09:49:56.407Z,17.46
2023-09-14T09:51:00.783Z,17.48
2023-09-14T09:52:05.327Z,17.41
2023-09-14T09:53:09.821Z,17.32
2023-09-14T09:54:14.212Z,17.17
2023-09-14T09:55:32.626Z,17.18
2023-09-14T09:56:35.948Z,17.29
2023-09-14T09:57:40.235Z,17.38
2023-09-14T09:58:44.969Z,17.48
2023-09-14T09:59:49.140Z,17.57
2023-09-14T10:00:53.537Z,17.59
2023-09-14T10:01:58.005Z,17.61
2023-09-14T10:03:02.659Z,17.58
2023-09-14T10:04:06.809Z,17.56
2023-09-14T10:05:11.179Z,17.54
2023-09-14T10:06:15.565Z,17.58
2023-09-14T10:07:20.098Z,17.60
2023-09-14T10:08:24.365Z,17.67
2023-09-14T10:09:29.921Z,17.76
2023-09-14T10:10:33.290Z,17.87
2023-09-14T10:11:37.834Z,17.85
2023-09-14T10:12:42.258Z,17.89
2023-09-14T10:13:46.682Z,17.80
2023-09-14T10:14:51.211Z,17.76
2023-09-14T10:15:55.825Z,17.80
2023-09-14T10:17:00.024Z,17.74
2023-09-14T10:18:04.463Z,17.59
2023-09-14T10:19:08.805Z,17.51
2023-09-14T10:20:13.224Z,17.37
2023-09-14T10:21:31.729Z,17.27
2023-09-14T10:22:35.209Z,17.16
2023-09-14T10:23:39.563Z,16.97
2023-09-14T10:24:43.848Z,16.75
2023-09-14T10:25:48.297Z,16.64
2023-09-14T10:26:52.666Z,16.54
2023-09-14T10:27:57.118Z,16.53
2023-09-14T10:29:01.628Z,16.52
2023-09-14T10:30:19.997Z,16.45
2023-09-14T10:31:23.483Z,16.39
2023-09-14T10:32:27.800Z,16.35
2023-09-14T10:33:31.960Z,16.39
2023-09-14T10:34:36.476Z,16.41
2023-09-14T10:35:40.936Z,16.47
2023-09-14T10:36:45.297Z,16.47
2023-09-14T10:37:49.836Z,16.52
2023-09-14T10:38:54.075Z,16.58
2023-09-14T10:40:12.648Z,16.54
2023-09-14T10:41:16.177Z,16.50
2023-09-14T10:42:20.326Z,16.54
2023-09-14T10:43:24.626Z,16.55
2023-09-14T10:44:29.122Z,16.54
2023-09-14T10:45:33.535Z,16.60
2023-09-14T10:46:38.003Z,16.53
2023-09-14T10:47:42.445Z,16.56
2023-09-14T10:48:47.280Z,16.65
2023-09-14T10:49:51.162Z,16.75
2023-09-14T10:50:55.598Z,16.85
2023-09-14T10:51:59.919Z,16.92
2023-09-14T10:53:04.399Z,16.95
2023-09-14T10:54:08.748Z,17.01
2023-09-14T10:55:13.266Z,17.07
2023-09-14T10:56:17.540Z,17.14
2023-09-14T10:57:21.974Z,17.21
2023-09-14T10:58:40.457Z,17.20
2023-09-14T10:59:43.659Z,17.06
2023-09-14T11:00:56.394Z,16.93
2023-09-14T11:01:55.302Z,16.82
2023-09-14T11:04:01.266Z,16.66
2023-09-14T11:05:08.284Z,16.70
2023-09-14T11:06:10.427Z,16.79
2023-09-14T11:07:15.163Z,16.68
2023-09-14T11:08:19.435Z,16.65
2023-09-14T11:09:23.764Z,16.59
2023-09-14T11:10:27.698Z,16.46
2023-09-14T11:11:32.475Z,16.46
2023-09-14T11:12:37.180Z,16.58
2023-09-14T11:13:40.834Z,16.71
2023-09-14T11:14:45.297Z,16.85
2023-09-14T11:15:50.629Z,16.92
2023-09-14T11:16:57.528Z,16.98
2023-09-14T11:18:01.282Z,17.06
2023-09-14T11:20:09.658Z,16.97
2023-09-14T11:21:14.854Z,16.97
2023-09-14T11:22:19.074Z,16.95
2023-09-14T11:23:22.490Z,16.85
2023-09-14T11:24:27.969Z,16.89
2023-09-14T11:25:35.770Z,16.98
2023-09-14T11:26:38.080Z,17.04
2023-09-14T11:27:40.933Z,17.11
2023-09-14T11:28:45.660Z,17.14
2023-09-14T11:29:51.367Z,17.05
2023-09-14T11:30:54.234Z,17.02
2023-09-14T11:32:00.642Z,16.97
2023-09-14T11:33:18.708Z,16.78
2023-09-14T11:34:19.720Z,16.70
2023-09-14T11:35:23.719Z,16.77
2023-09-14T11:36:30.655Z,16.83
2023-09-14T11:37:34.189Z,16.95
2023-09-14T11:38:38.086Z,16.97
2023-09-14T11:39:42.572Z,16.84
2023-09-14T11:40:46.290Z,16.81
2023-09-14T11:41:50.393Z,16.89
2023-09-14T11:42:56.643Z,17.02
2023-09-14T11:44:19.440Z,17.04
2023-09-14T11:45:06.165Z,16.99
2023-09-14T11:46:11.298Z,16.93
2023-09-14T11:47:15.476Z,16.89
2023-09-14T11:50:25.172Z,17.12
2023-09-14T11:51:29.625Z,17.07
2023-09-14T11:52:33.956Z,17.08
2023-09-14T11:53:52.345Z,17.17
2023-09-14T11:54:55.786Z,17.21
2023-09-14T11:56:00.097Z,17.31
2023-09-14T11:57:04.624Z,17.42
2023-09-14T11:58:23.087Z,17.47
2023-09-14T11:59:26.137Z,17.66
2023-09-14T12:00:30.585Z,17.90
2023-09-14T12:01:34.783Z,18.09
2023-09-14T12:02:39.215Z,18.25
2023-09-14T12:03:43.642Z,18.13
2023-09-14T12:04:47.964Z,17.93
2023-09-14T12:05:52.351Z,18.09
2023-09-14T12:06:56.823Z,18.22
2023-09-14T12:08:01.176Z,18.11
2023-09-14T12:09:12.313Z,18.09
2023-09-14T12:10:09.999Z,18.02
2023-09-14T12:11:14.434Z,17.94
2023-09-14T12:12:18.812Z,17.89
2023-09-14T12:13:23.235Z,17.53
2023-09-14T12:14:27.624Z,17.38
2023-09-14T12:15:38.106Z,17.18
2023-09-14T12:16:41.372Z,17.01
2023-09-14T12:17:45.507Z,16.98
2023-09-14T12:18:50.115Z,16.87
2023-09-14T12:20:08.283Z,16.88
2023-09-14T12:21:11.751Z,16.86
2023-09-14T12:22:15.952Z,16.71
2023-09-14T12:23:20.368Z,16.62
2023-09-14T12:24:24.848Z,16.66
2023-09-14T12:25:29.126Z,16.84
2023-09-14T12:26:33.485Z,16.96
2023-09-14T12:27:37.970Z,16.85
2023-09-14T12:28:42.386Z,16.57
2023-09-14T12:29:46.715Z,16.41
2023-09-14T12:30:51.190Z,16.38
2023-09-14T12:31:55.522Z,16.39
2023-09-14T12:32:59.927Z,16.41
2023-09-14T12:34:04.376Z,16.46
2023-09-14T12:35:08.847Z,16.63
2023-09-14T12:36:13.124Z,16.80
2023-09-14T12:37:17.665Z,16.96
2023-09-14T12:38:25.097Z,17.08
2023-09-14T12:39:26.453Z,17.48
2023-09-14T12:40:30.773Z,17.83
2023-09-14T12:41:35.181Z,17.99
2023-09-14T12:42:39.596Z,17.75
2023-09-14T12:43:44.088Z,17.40
2023-09-14T12:44:48.544Z,16.99
2023-09-14T12:45:53.075Z,17.01
2023-09-14T12:46:57.401Z,17.12
2023-09-14T12:48:01.837Z,16.88
2023-09-14T12:49:06.187Z,16.30
2023-09-14T12:50:10.529Z,16.01
2023-09-14T12:51:14.925Z,15.91
2023-09-14T12:52:19.378Z,15.99
2023-09-14T12:53:23.720Z,16.17
2023-09-14T12:54:42.242Z,16.36
2023-09-14T12:55:45.661Z,16.58
2023-09-14T12:56:50.071Z,16.74
2023-09-14T12:57:54.541Z,16.64
2023-09-14T12:58:58.803Z,16.59
2023-09-14T13:00:03.185Z,16.81
2023-09-14T13:01:07.551Z,17.18
2023-09-14T13:02:12.094Z,17.20
2023-09-14T13:03:30.616Z,17.35
2023-09-14T13:04:47.854Z,17.42
2023-09-14T13:05:51.199Z,17.13
2023-09-14T13:06:55.735Z,17.16
2023-09-14T13:07:59.952Z,16.97
2023-09-14T13:09:18.326Z,16.56
2023-09-14T13:10:21.484Z,16.48
2023-09-14T13:11:25.869Z,16.45
2023-09-14T13:12:30.330Z,16.50
2023-09-14T13:13:48.720Z,16.68
2023-09-14T13:14:52.023Z,16.76
2023-09-14T13:15:56.389Z,16.82
2023-09-14T13:17:00.795Z,17.01
2023-09-14T13:18:05.310Z,16.97
2023-09-14T13:19:09.718Z,16.95
2023-09-14T13:20:14.077Z,17.06
2023-09-14T13:21:18.521Z,17.12
2023-09-14T13:22:22.882Z,16.98
2023-09-14T13:23:27.369Z,16.88
2023-09-14T13:24:31.761Z,16.90
2023-09-14T13:25:36.237Z,16.64
2023-09-14T13:26:40.690Z,16.42
2023-09-14T13:27:45.197Z,16.15
2023-09-14T13:28:50.102Z,16.08
2023-09-14T13:29:54.127Z,16.08
2023-09-14T13:30:58.673Z,16.10
2023-09-14T13:32:02.848Z,16.15
2023-09-14T13:33:07.451Z,16.17
2023-09-14T13:34:11.796Z,16.13
2023-09-14T13:35:16.462Z,15.97
2023-09-14T13:36:20.695Z,16.03
2023-09-14T13:37:39.053Z,15.93
2023-09-14T13:38:42.394Z,15.88
2023-09-14T13:39:46.905Z,15.88
2023-09-14T13:40:51.358Z,15.93
2023-09-14T13:41:57.773Z,16.17
2023-09-14T13:43:00.374Z,16.35
2023-09-14T13:45:32.120Z,16.49
2023-09-14T13:46:39.532Z,16.53
2023-09-14T13:47:43.076Z,16.37
2023-09-14T13:48:47.879Z,16.29
2023-09-14T13:49:51.893Z,16.41
2023-09-14T13:50:56.395Z,16.52
2023-09-14T13:52:00.917Z,16.45
2023-09-14T13:53:05.304Z,16.25
2023-09-14T13:54:09.769Z,15.99
2023-09-14T13:55:14.218Z,15.81
2023-09-14T13:56:24.507Z,15.72
2023-09-14T13:57:41.668Z,15.76
2023-09-14T13:58:45.608Z,15.76
2023-09-14T13:59:49.309Z,15.68
2023-09-14T14:00:53.934Z,15.82
2023-09-14T14:01:58.266Z,15.75
2023-09-14T14:03:02.719Z,15.83
2023-09-14T14:04:07.127Z,15.92
2023-09-14T14:05:11.619Z,16.02